createdAt,value
2018-04-01T00:00:45.376Z,18.90
2018-04-01T00:03:12.129Z,11.27
2018-04-01T00:05:38.533Z,13.10
2018-04-01T00:08:04.925Z,12.63
2018-04-01T00:10:31.571Z,18.10
2018-04-01T00:12:57.968Z,14.50
2018-04-01T00:15:24.391Z,13.70
2018-04-01T00:17:51.675Z,14.10
2018-04-01T00:20:18.076Z,15.40
2018-04-01T00:22:44.470Z,14.30
2018-04-01T00:25:11.286Z,20.80
2018-04-01T00:27:37.690Z,15.00
2018-04-01T00:30:04.091Z,19.63
2018-04-01T00:32:30.682Z,19.37
2018-04-01T00:34:57.105Z,13.98
2018-04-01T00:37:23.508Z,21.77
2018-04-01T00:39:50.210Z,12.37
2018-04-01T00:42:16.613Z,13.23
2018-04-01T00:44:43.030Z,15.90
2018-04-01T00:47:09.735Z,10.40
2018-04-01T00:49:36.145Z,19.60
2018-04-01T00:52:02.541Z,11.20
2018-04-01T00:54:29.132Z,10.70
2018-04-01T00:56:56.181Z,13.00
2018-04-01T00:59:22.578Z,11.93
2018-04-01T01:01:49.366Z,9.37
2018-04-01T01:04:15.770Z,11.70
2018-04-01T01:06:42.170Z,6.93
2018-04-01T01:09:08.973Z,11.20
2018-04-01T01:11:35.361Z,8.90
2018-04-01T01:14:01.760Z,10.20
2018-04-01T01:16:28.594Z,11.60
2018-04-01T01:18:55.009Z,9.50
2018-04-01T01:21:21.419Z,9.10
2018-04-01T01:23:48.207Z,7.73
2018-04-01T01:26:14.644Z,7.00
2018-04-01T01:28:41.015Z,9.20
2018-04-01T01:31:07.669Z,8.43
2018-04-01T01:33:34.066Z,7.67
2018-04-01T01:36:00.461Z,14.70
2018-04-01T01:38:27.435Z,7.17
2018-04-01T01:40:53.828Z,9.13
2018-04-01T01:43:20.226Z,10.00
2018-04-01T01:45:47.349Z,12.40
2018-04-01T01:48:13.746Z,8.30
2018-04-01T01:50:40.145Z,7.73
2018-04-01T01:53:06.974Z,9.13
2018-04-01T01:55:33.368Z,7.27
2018-04-01T01:58:00.241Z,7.40
2018-04-01T02:00:26.911Z,8.90
2018-04-01T02:02:53.306Z,7.50
2018-04-01T02:05:19.698Z,8.43
2018-04-01T02:07:46.425Z,10.10
2018-04-01T02:10:12.819Z,8.63
2018-04-01T02:12:39.230Z,9.33
2018-04-01T02:15:06.037Z,8.77
2018-04-01T02:17:32.438Z,8.50
2018-04-01T02:19:58.830Z,6.13
2018-04-01T02:22:25.638Z,9.97
2018-04-01T02:24:52.033Z,10.30
2018-04-01T02:27:18.427Z,9.70
2018-04-01T02:29:45.044Z,11.03
2018-04-01T02:32:11.445Z,11.33
2018-04-01T02:34:37.846Z,10.53
2018-04-01T02:37:04.495Z,11.50
2018-04-01T02:39:30.906Z,10.57
2018-04-01T02:41:57.318Z,13.30
2018-04-01T02:44:24.276Z,10.47
2018-04-01T02:46:50.670Z,10.40
2018-04-01T02:49:17.972Z,9.93
2018-04-01T02:51:44.370Z,11.20
2018-04-01T02:54:10.769Z,10.30
2018-04-01T02:56:37.590Z,10.30
2018-04-01T02:59:04.010Z,16.90
2018-04-01T03:01:30.407Z,14.20
2018-04-01T03:03:57.222Z,10.37
2018-04-01T03:06:23.628Z,13.40
2018-04-01T03:08:50.027Z,17.13
2018-04-01T03:11:17.154Z,12.13
2018-04-01T03:13:43.555Z,20.00
2018-04-01T03:16:09.947Z,12.13
2018-04-01T03:18:36.743Z,13.97
2018-04-01T03:21:03.153Z,13.90
2018-04-01T03:23:29.567Z,14.68
2018-04-01T03:25:56.367Z,15.50
2018-04-01T03:28:22.773Z,15.97
2018-04-01T03:30:49.176Z,24.00
2018-04-01T03:33:15.979Z,15.10
2018-04-01T03:35:42.387Z,13.73
2018-04-01T03:38:08.795Z,17.33
2018-04-01T03:40:35.591Z,17.17
2018-04-01T03:43:02.007Z,14.57
2018-04-01T03:45:28.406Z,13.73
2018-04-01T03:47:55.193Z,14.93
2018-04-01T03:50:22.227Z,21.47
2018-04-01T03:52:48.639Z,15.63
2018-04-01T03:55:15.421Z,35.63
2018-04-01T03:57:41.832Z,18.98
2018-04-01T04:00:08.237Z,14.77
2018-04-01T04:02:35.082Z,16.53
2018-04-01T04:05:01.484Z,16.97
2018-04-01T04:07:27.894Z,16.20
2018-04-01T04:09:54.553Z,17.53
2018-04-01T04:12:20.949Z,18.03
2018-04-01T04:14:47.349Z,18.50
2018-04-01T04:17:13.965Z,19.20
2018-04-01T04:19:40.370Z,37.07
2018-04-01T04:22:06.770Z,26.63
2018-04-01T04:24:33.592Z,18.97
2018-04-01T04:26:59.986Z,22.73
2018-04-01T04:29:26.391Z,20.73
2018-04-01T04:31:53.208Z,23.97
2018-04-01T04:34:19.615Z,20.40
2018-04-01T04:36:46.021Z,23.80
2018-04-01T04:39:12.721Z,32.23
2018-04-01T04:41:39.123Z,23.90
2018-04-01T04:44:05.531Z,24.50
2018-04-01T04:46:32.421Z,26.70
2018-04-01T04:48:58.825Z,25.83
2018-04-01T04:51:25.994Z,23.80
2018-04-01T04:53:52.810Z,21.33
2018-04-01T04:56:19.224Z,25.83
2018-04-01T04:58:45.630Z,22.70
2018-04-01T05:01:12.577Z,23.03
2018-04-01T05:03:38.987Z,23.13
2018-04-01T05:06:05.399Z,23.83
2018-04-01T05:08:32.189Z,26.37
2018-04-01T05:10:58.592Z,25.10
2018-04-01T05:13:24.985Z,26.93
2018-04-01T05:15:52.109Z,25.20
2018-04-01T05:18:18.518Z,22.10
2018-04-01T05:20:44.919Z,21.27
2018-04-01T05:23:11.730Z,26.03
2018-04-01T05:25:38.133Z,20.02
2018-04-01T05:28:04.526Z,30.07
2018-04-01T05:30:31.342Z,20.23
2018-04-01T05:32:57.738Z,20.90
2018-04-01T05:35:24.138Z,22.90
2018-04-01T05:37:50.961Z,23.00
2018-04-01T05:40:17.361Z,20.90
2018-04-01T05:42:43.769Z,16.63
2018-04-01T05:45:10.574Z,21.43
2018-04-01T05:47:36.978Z,19.30
2018-04-01T05:50:03.378Z,16.73
2018-04-01T05:52:30.315Z,17.30
2018-04-01T05:54:56.709Z,19.97
2018-04-01T05:57:23.106Z,15.57
2018-04-01T05:59:49.806Z,18.10
2018-04-01T06:02:16.206Z,14.23
2018-04-01T06:04:42.610Z,20.30
2018-04-01T06:07:09.409Z,12.43
2018-04-01T06:09:35.808Z,12.90
2018-04-01T06:12:02.202Z,17.83
2018-04-01T06:14:29.027Z,11.23
2018-04-01T06:16:55.424Z,11.10
2018-04-01T06:19:21.831Z,11.27
2018-04-01T06:21:48.646Z,12.13
2018-04-01T06:24:15.054Z,15.23
2018-04-01T06:26:41.469Z,9.67
2018-04-01T06:29:08.258Z,10.47
2018-04-01T06:31:34.652Z,19.67
2018-04-01T06:34:01.062Z,16.37
2018-04-01T06:36:28.198Z,10.10
2018-04-01T06:38:54.597Z,15.57
2018-04-01T06:41:20.995Z,8.10
2018-04-01T06:43:47.708Z,8.90
2018-04-01T06:46:14.325Z,12.90
2018-04-01T06:48:41.038Z,9.27
2018-04-01T06:51:07.714Z,8.80
2018-04-01T06:53:34.594Z,8.37
2018-04-01T06:56:00.989Z,8.20
2018-04-01T06:58:27.641Z,8.20
2018-04-01T07:00:54.033Z,7.57
2018-04-01T07:03:20.428Z,12.27
2018-04-01T07:05:47.255Z,7.90
2018-04-01T07:08:13.649Z,8.88
2018-04-01T07:10:40.045Z,8.33
2018-04-01T07:13:06.853Z,6.87
2018-04-01T07:15:33.253Z,6.07
2018-04-01T07:17:59.653Z,7.73
2018-04-01T07:20:26.490Z,12.43
2018-04-01T07:22:52.881Z,7.60
2018-04-01T07:25:19.287Z,11.43
2018-04-01T07:27:46.098Z,5.80
2018-04-01T07:30:12.492Z,8.17
2018-04-01T07:32:38.892Z,13.17
2018-04-01T07:35:05.533Z,6.37
2018-04-01T07:37:31.937Z,6.77
2018-04-01T07:39:58.345Z,9.03
2018-04-01T07:42:25.060Z,8.30
2018-04-01T07:44:51.433Z,6.60
2018-04-01T07:47:17.834Z,5.63
2018-04-01T07:49:44.638Z,7.33
2018-04-01T07:52:11.039Z,10.80
2018-04-01T07:54:38.213Z,7.43
2018-04-01T07:57:04.810Z,7.17
2018-04-01T07:59:31.206Z,6.47
2018-04-01T08:01:57.596Z,4.80
2018-04-01T08:04:24.302Z,7.70
2018-04-01T08:06:50.699Z,6.50
2018-04-01T08:09:17.091Z,7.03
2018-04-01T08:11:44.101Z,5.07
2018-04-01T08:14:10.510Z,18.93
2018-04-01T08:16:36.914Z,6.13
2018-04-01T08:19:03.715Z,4.33
2018-04-01T08:21:30.102Z,6.80
2018-04-01T08:23:56.495Z,6.07
2018-04-01T08:26:23.659Z,6.07
2018-04-01T08:28:50.050Z,6.10
2018-04-01T08:31:16.445Z,6.03
2018-04-01T08:33:43.011Z,7.87
2018-04-01T08:36:09.405Z,5.80
2018-04-01T08:38:35.802Z,6.43
2018-04-01T08:41:02.554Z,5.57
2018-04-01T08:43:28.961Z,11.73
2018-04-01T08:45:55.353Z,8.23
2018-04-01T08:48:22.176Z,9.93
2018-04-01T08:50:48.606Z,6.87
2018-04-01T08:53:15.044Z,7.00
2018-04-01T08:55:41.901Z,6.03
2018-04-01T08:58:08.289Z,4.60
2018-04-01T09:00:34.684Z,5.60
2018-04-01T09:03:01.713Z,8.23
2018-04-01T09:05:28.108Z,10.17
2018-04-01T09:07:54.503Z,9.17
2018-04-01T09:10:21.324Z,16.90
2018-04-01T09:12:47.725Z,12.80
2018-04-01T09:15:14.134Z,7.93
2018-04-01T09:17:40.949Z,7.57
2018-04-01T09:20:07.347Z,11.47
2018-04-01T09:22:33.739Z,8.70
2018-04-01T09:25:00.470Z,14.90
2018-04-01T09:27:26.874Z,10.60
2018-04-01T09:29:53.262Z,7.83
2018-04-01T09:32:20.170Z,8.00
2018-04-01T09:34:46.562Z,6.67
2018-04-01T09:37:12.953Z,8.87
2018-04-01T09:39:39.791Z,6.93
2018-04-01T09:42:06.191Z,11.20
2018-04-01T09:44:32.578Z,7.70
2018-04-01T09:46:59.153Z,11.53
2018-04-01T09:49:25.548Z,8.07
2018-04-01T09:51:51.954Z,7.97
2018-04-01T09:54:18.716Z,9.93
2018-04-01T09:56:45.140Z,10.40
2018-04-01T09:59:11.534Z,8.37
2018-04-01T10:01:38.983Z,10.07
2018-04-01T10:04:05.612Z,7.50
2018-04-01T10:06:32.256Z,15.83
2018-04-01T10:08:59.032Z,5.53
2018-04-01T10:11:25.654Z,4.10
2018-04-01T10:13:52.284Z,5.37
2018-04-01T10:16:19.146Z,6.10
2018-04-01T10:18:45.769Z,7.30
2018-04-01T10:21:12.403Z,11.07
2018-04-01T10:23:39.171Z,6.03
2018-04-01T10:26:05.810Z,5.20
2018-04-01T10:28:32.441Z,8.17
2018-04-01T10:30:59.486Z,15.73
2018-04-01T10:33:26.110Z,4.80
2018-04-01T10:35:52.741Z,5.40
2018-04-01T10:38:19.778Z,5.90
2018-04-01T10:40:46.412Z,5.47
2018-04-01T10:43:13.043Z,5.27
2018-04-01T10:45:40.011Z,5.10
2018-04-01T10:48:06.656Z,11.23
2018-04-01T10:50:33.286Z,5.80
2018-04-01T10:53:00.163Z,5.50
2018-04-01T10:55:26.559Z,6.83
2018-04-01T10:57:53.194Z,9.30
2018-04-01T11:00:20.164Z,4.93
2018-04-01T11:02:46.554Z,5.83
2018-04-01T11:05:12.964Z,12.03
2018-04-01T11:07:39.982Z,5.07
2018-04-01T11:10:06.382Z,4.97
2018-04-01T11:12:32.779Z,5.30
2018-04-01T11:14:59.696Z,5.50
2018-04-01T11:17:26.089Z,7.73
2018-04-01T11:19:52.482Z,5.07
2018-04-01T11:22:19.313Z,4.77
2018-04-01T11:24:45.718Z,5.00
2018-04-01T11:27:12.111Z,5.13
2018-04-01T11:29:38.922Z,4.33
2018-04-01T11:32:05.318Z,6.13
2018-04-01T11:34:31.714Z,4.57
2018-04-01T11:36:58.444Z,5.60
2018-04-01T11:39:24.838Z,6.13
2018-04-01T11:41:51.227Z,4.80
2018-04-01T11:44:17.854Z,5.13
2018-04-01T11:46:44.238Z,4.60
2018-04-01T11:49:10.642Z,4.63
2018-04-01T11:51:37.346Z,4.53
2018-04-01T11:54:03.778Z,4.60
2018-04-01T11:56:30.191Z,4.57
2018-04-01T11:58:57.998Z,4.50
2018-04-01T12:01:24.390Z,2.93
2018-04-01T12:03:50.993Z,4.23
2018-04-01T12:06:18.233Z,3.20
2018-04-01T12:08:44.633Z,5.30
2018-04-01T12:11:11.018Z,4.67
2018-04-01T12:13:37.845Z,4.70
2018-04-01T12:16:04.242Z,3.50
2018-04-01T12:18:30.646Z,7.47
2018-04-01T12:20:57.465Z,6.03
2018-04-01T12:23:23.857Z,4.10
2018-04-01T12:25:50.246Z,4.97
2018-04-01T12:28:17.078Z,3.63
2018-04-01T12:30:43.474Z,3.65
2018-04-01T12:33:09.871Z,6.10
2018-04-01T12:35:36.698Z,3.63
2018-04-01T12:38:03.091Z,3.50
2018-04-01T12:40:29.483Z,3.27
2018-04-01T12:42:56.303Z,3.77
2018-04-01T12:45:22.693Z,2.13
2018-04-01T12:47:49.098Z,2.50
2018-04-01T12:50:15.927Z,2.60
2018-04-01T12:52:42.314Z,3.30
2018-04-01T12:55:08.713Z,5.23
2018-04-01T12:57:35.361Z,2.67
2018-04-01T13:00:02.273Z,2.50
2018-04-01T13:02:28.670Z,2.03
2018-04-01T13:04:55.477Z,2.33
2018-04-01T13:07:22.471Z,2.03
2018-04-01T13:09:48.870Z,5.20
2018-04-01T13:12:15.671Z,2.17
2018-04-01T13:14:42.062Z,1.83
2018-04-01T13:17:08.453Z,1.80
2018-04-01T13:19:35.022Z,2.07
2018-04-01T13:22:01.414Z,2.17
2018-04-01T13:24:27.824Z,1.70
2018-04-01T13:26:54.925Z,1.00
2018-04-01T13:29:21.313Z,2.20
2018-04-01T13:31:47.710Z,7.00
2018-04-01T13:34:14.259Z,0.50
2018-04-01T13:36:40.650Z,0.50
2018-04-01T13:39:07.050Z,0.50
2018-04-01T13:41:33.853Z,0.50
2018-04-01T13:44:00.241Z,0.70
2018-04-01T13:46:26.833Z,0.90
2018-04-01T13:48:53.763Z,0.70
2018-04-01T13:51:20.157Z,1.80
2018-04-01T13:53:46.561Z,1.00
2018-04-01T13:56:13.378Z,3.60
2018-04-01T13:58:39.778Z,0.80
2018-04-01T14:01:06.334Z,1.10
2018-04-01T14:03:32.998Z,1.03
2018-04-01T14:05:59.402Z,0.70
2018-04-01T14:08:25.814Z,0.77
2018-04-01T14:10:52.521Z,1.40
2018-04-01T14:13:18.931Z,1.33
2018-04-01T14:15:45.330Z,1.07
2018-04-01T14:18:12.217Z,1.00
2018-04-01T14:20:38.628Z,1.50
2018-04-01T14:23:05.026Z,1.60
2018-04-01T14:25:31.837Z,1.50
2018-04-01T14:27:58.237Z,1.63
2018-04-01T14:30:24.630Z,1.83
2018-04-01T14:32:51.470Z,1.40
2018-04-01T14:35:17.866Z,1.50
2018-04-01T14:37:44.249Z,1.50
2018-04-01T14:40:11.047Z,2.10
2018-04-01T14:42:37.447Z,2.20
2018-04-01T14:45:03.839Z,1.60
2018-04-01T14:47:30.953Z,3.20
2018-04-01T14:49:57.353Z,1.90
2018-04-01T14:52:23.741Z,2.03
2018-04-01T14:54:50.294Z,1.70
2018-04-01T14:57:16.681Z,1.90
2018-04-01T14:59:43.089Z,3.00
2018-04-01T15:02:11.147Z,1.60
2018-04-01T15:04:37.946Z,2.50
2018-04-01T15:07:04.346Z,4.50
2018-04-01T15:09:31.056Z,2.50
2018-04-01T15:11:57.462Z,2.20
2018-04-01T15:14:25.356Z,1.17
2018-04-01T15:16:52.297Z,0.90
2018-04-01T15:19:18.693Z,1.67
2018-04-01T15:21:45.094Z,1.00
2018-04-01T15:24:11.834Z,1.33
2018-04-01T15:26:38.227Z,1.00
2018-04-01T15:29:04.622Z,1.47
2018-04-01T15:31:31.445Z,0.88
2018-04-01T15:33:57.866Z,0.80
2018-04-01T15:36:24.258Z,3.17
2018-04-01T15:38:51.057Z,9.67
2018-04-01T15:41:17.460Z,1.73
2018-04-01T15:43:43.855Z,4.50
2018-04-01T15:46:10.674Z,1.90
2018-04-01T15:48:37.069Z,0.70
2018-04-01T15:51:03.462Z,1.13
2018-04-01T15:53:30.294Z,1.00
2018-04-01T15:55:56.690Z,1.00
2018-04-01T15:58:23.084Z,1.00
2018-04-01T16:00:49.906Z,0.70
2018-04-01T16:03:16.321Z,0.70
2018-04-01T16:05:42.714Z,0.70
2018-04-01T16:08:09.526Z,0.80
2018-04-01T16:10:35.922Z,0.90
2018-04-01T16:13:02.317Z,1.10
2018-04-01T16:15:29.325Z,2.73
2018-04-01T16:17:55.719Z,0.70
2018-04-01T16:20:22.109Z,1.23
2018-04-01T16:22:48.767Z,1.13
2018-04-01T16:25:15.155Z,0.70
2018-04-01T16:27:41.547Z,0.90
2018-04-01T16:30:08.368Z,1.40
2018-04-01T16:32:34.762Z,0.80
2018-04-01T16:35:01.164Z,1.90
2018-04-01T16:37:27.986Z,0.50
2018-04-01T16:39:54.401Z,0.73
2018-04-01T16:42:20.795Z,0.77
2018-04-01T16:44:47.598Z,0.90
2018-04-01T16:47:13.986Z,0.83
2018-04-01T16:49:40.383Z,0.90
2018-04-01T16:52:07.438Z,0.70
2018-04-01T16:54:33.835Z,0.70
2018-04-01T16:57:00.235Z,1.07
2018-04-01T16:59:26.872Z,1.00
2018-04-01T17:01:53.243Z,0.90
2018-04-01T17:04:20.399Z,0.80
2018-04-01T17:06:47.050Z,0.80
2018-04-01T17:09:13.446Z,0.73
2018-04-01T17:11:39.841Z,0.77
2018-04-01T17:14:06.654Z,1.57
2018-04-01T17:16:33.047Z,0.63
2018-04-01T17:18:59.437Z,2.60
2018-04-01T17:21:27.300Z,3.37
2018-04-01T17:23:53.697Z,1.20
2018-04-01T17:26:20.095Z,2.83
2018-04-01T17:28:46.823Z,1.70
2018-04-01T17:31:13.214Z,2.83
2018-04-01T17:33:39.609Z,1.17
2018-04-01T17:36:06.358Z,1.23
2018-04-01T17:38:32.751Z,1.10
2018-04-01T17:40:59.177Z,1.83
2018-04-01T17:43:25.748Z,1.97
2018-04-01T17:45:52.142Z,2.33
2018-04-01T17:48:18.542Z,2.37
2018-04-01T17:50:45.664Z,2.10
2018-04-01T17:53:12.052Z,2.60
2018-04-01T17:55:38.459Z,5.50
2018-04-01T17:58:05.284Z,2.97
2018-04-01T18:00:31.674Z,2.17
2018-04-01T18:02:58.419Z,3.22
2018-04-01T18:05:25.528Z,3.83
2018-04-01T18:07:51.938Z,3.20
2018-04-01T18:10:18.346Z,2.80
2018-04-01T18:12:45.062Z,3.20
2018-04-01T18:15:11.465Z,2.50
2018-04-01T18:17:37.862Z,2.10
2018-04-01T18:20:04.743Z,3.20
2018-04-01T18:22:31.139Z,2.87
2018-04-01T18:24:57.529Z,3.30
2018-04-01T18:27:24.359Z,2.67
2018-04-01T18:29:50.762Z,4.50
2018-04-01T18:32:17.169Z,2.20
2018-04-01T18:34:43.974Z,1.87
2018-04-01T18:37:10.378Z,2.80
2018-04-01T18:39:36.780Z,1.50
2018-04-01T18:42:03.558Z,3.40
2018-04-01T18:44:29.968Z,1.53
2018-04-01T18:46:56.362Z,1.30
2018-04-01T18:49:23.194Z,1.77
2018-04-01T18:51:49.601Z,1.70
2018-04-01T18:54:15.988Z,1.47
2018-04-01T18:56:42.795Z,1.80
2018-04-01T18:59:09.190Z,2.93
2018-04-01T19:01:35.583Z,1.30
2018-04-01T19:04:02.963Z,1.83
2018-04-01T19:06:29.804Z,1.60
2018-04-01T19:08:56.199Z,1.93
2018-04-01T19:11:22.980Z,1.60
2018-04-01T19:13:49.378Z,2.23
2018-04-01T19:16:16.002Z,2.57
2018-04-01T19:18:42.891Z,3.10
2018-04-01T19:21:09.537Z,2.93
2018-04-01T19:23:36.190Z,2.50
2018-04-01T19:26:03.136Z,3.30
2018-04-01T19:28:29.761Z,9.73
2018-04-01T19:30:56.390Z,3.20
2018-04-01T19:33:23.890Z,2.43
2018-04-01T19:35:50.651Z,2.40
2018-04-01T19:38:17.278Z,2.83
2018-04-01T19:40:44.179Z,3.40
2018-04-01T19:43:11.123Z,5.57
2018-04-01T19:45:37.771Z,11.67
2018-04-01T19:48:05.034Z,4.53
2018-04-01T19:50:31.661Z,3.90
2018-04-01T19:52:58.294Z,6.03
2018-04-01T19:55:25.513Z,5.40
2018-04-01T19:57:52.150Z,4.17
2018-04-01T20:00:19.262Z,4.25
2018-04-01T20:02:46.666Z,3.87
2018-04-01T20:05:13.290Z,6.37
2018-04-01T20:07:40.598Z,6.50
2018-04-01T20:10:07.591Z,7.70
2018-04-01T20:12:34.242Z,6.27
2018-04-01T20:15:00.887Z,6.70
2018-04-01T20:17:27.806Z,7.43
2018-04-01T20:19:54.442Z,9.50
2018-04-01T20:22:21.071Z,5.73
2018-04-01T20:24:48.396Z,6.80
2018-04-01T20:27:15.050Z,6.07
2018-04-01T20:29:41.716Z,7.13
2018-04-01T20:32:08.865Z,6.30
2018-04-01T20:34:35.490Z,5.53
2018-04-01T20:37:02.134Z,6.87
2018-04-01T20:39:29.099Z,7.40
2018-04-01T20:41:55.738Z,7.53
2018-04-01T20:44:22.370Z,5.70
2018-04-01T20:46:49.339Z,5.77
2018-04-01T20:49:16.282Z,7.40
2018-04-01T20:51:42.911Z,8.10
2018-04-01T20:54:09.890Z,6.77
2018-04-01T20:56:36.545Z,7.57
2018-04-01T20:59:03.173Z,7.20
2018-04-01T21:01:30.107Z,8.30
2018-04-01T21:03:56.738Z,9.17
2018-04-01T21:06:23.378Z,7.07
2018-04-01T21:08:50.389Z,6.93
2018-04-01T21:11:17.031Z,9.10
2018-04-01T21:13:43.661Z,10.23
2018-04-01T21:16:10.642Z,8.27
2018-04-01T21:18:37.308Z,10.73
2018-04-01T21:21:03.942Z,8.10
2018-04-01T21:23:30.984Z,19.67
2018-04-01T21:25:57.606Z,10.10
2018-04-01T21:28:24.238Z,12.33
2018-04-01T21:30:51.327Z,8.50
2018-04-01T21:33:18.673Z,13.20
2018-04-01T21:35:45.351Z,9.80
2018-04-01T21:38:12.470Z,10.17
2018-04-01T21:40:39.128Z,8.05
2018-04-01T21:43:05.759Z,6.97
2018-04-01T21:45:32.966Z,9.80
2018-04-01T21:47:59.605Z,7.93
2018-04-01T21:50:26.252Z,10.17
2018-04-01T21:52:53.247Z,7.10
2018-04-01T21:55:19.886Z,8.10
2018-04-01T21:57:46.522Z,8.70
2018-04-01T22:00:13.486Z,8.80
2018-04-01T22:02:40.157Z,7.60
2018-04-01T22:05:06.789Z,8.07
2018-04-01T22:07:34.020Z,9.23
2018-04-01T22:10:03.436Z,7.30
2018-04-01T22:12:30.069Z,5.30
2018-04-01T22:14:57.002Z,11.80
2018-04-01T22:17:23.641Z,7.60
2018-04-01T22:19:50.285Z,14.73
2018-04-01T22:22:17.539Z,7.27
2018-04-01T22:24:44.165Z,6.95
2018-04-01T22:27:10.800Z,7.77
2018-04-01T22:29:38.077Z,8.23
2018-04-01T22:32:04.714Z,10.27
2018-04-01T22:34:31.346Z,7.05
2018-04-01T22:36:58.320Z,8.30
2018-04-01T22:39:24.947Z,7.97
2018-04-01T22:41:51.581Z,8.10
2018-04-01T22:44:18.526Z,9.40
2018-04-01T22:46:45.158Z,8.23
2018-04-01T22:49:11.805Z,8.77
2018-04-01T22:51:38.762Z,9.33
2018-04-01T22:54:05.402Z,10.47
2018-04-01T22:56:32.043Z,17.00
2018-04-01T22:58:59.001Z,9.17
2018-04-01T23:01:25.638Z,10.80
2018-04-01T23:03:52.278Z,10.30
2018-04-01T23:06:19.215Z,12.03
2018-04-01T23:08:45.847Z,8.30
2018-04-01T23:11:13.042Z,10.20
2018-04-01T23:13:40.376Z,9.70
2018-04-01T23:16:07.014Z,13.40
2018-04-01T23:18:33.647Z,12.90
2018-04-01T23:21:00.601Z,10.13
2018-04-01T23:23:27.263Z,11.90
2018-04-01T23:25:53.922Z,14.63
2018-04-01T23:28:20.830Z,11.17
2018-04-01T23:30:47.461Z,8.85
2018-04-01T23:33:14.099Z,10.03
2018-04-01T23:35:41.682Z,10.37
2018-04-01T23:38:08.312Z,15.03
2018-04-01T23:40:35.041Z,9.73
2018-04-01T23:43:01.850Z,8.93
2018-04-01T23:45:28.484Z,12.83
2018-04-01T23:47:55.123Z,7.60
2018-04-01T23:50:22.136Z,9.17
2018-04-01T23:52:48.770Z,11.33
2018-04-01T23:55:15.397Z,7.53
2018-04-01T23:57:42.379Z,10.37
